createdAt,value
2023-05-20T00:00:00.610Z,991.3
2023-05-20T00:10:00.581Z,991.2
2023-05-20T00:20:00.576Z,991.1
2023-05-20T00:30:00.570Z,991.2
2023-05-20T00:40:00.588Z,991.3
2023-05-20T00:50:00.581Z,991.3
2023-05-20T01:00:00.579Z,991.2
2023-05-20T01:10:00.570Z,991.3
2023-05-20T01:20:00.580Z,991.2
2023-05-20T01:30:00.609Z,991.3
2023-05-20T01:40:00.616Z,991.3
2023-05-20T01:50:00.589Z,991.3
2023-05-20T02:00:00.608Z,991.3
2023-05-20T02:10:00.586Z,991.2
2023-05-20T02:20:00.640Z,991.2
2023-05-20T02:30:00.580Z,991.3
2023-05-20T02:40:00.653Z,991.2
2023-05-20T02:50:00.612Z,991.3
2023-05-20T03:00:00.661Z,991.3
2023-05-20T03:10:00.564Z,991.3
2023-05-20T03:20:00.566Z,991.3
2023-05-20T03:30:00.553Z,991.3
2023-05-20T03:40:00.596Z,991.4
2023-05-20T03:50:00.553Z,991.5
2023-05-20T04:00:00.619Z,991.7
2023-05-20T04:10:01.098Z,991.8
2023-05-20T04:20:00.555Z,991.7
2023-05-20T04:30:00.499Z,991.8
2023-05-20T04:50:00.282Z,991.9
2023-05-20T05:00:00.283Z,991.9
2023-05-20T05:10:00.263Z,991.9
2023-05-20T05:20:00.317Z,991.9
2023-05-20T05:30:00.372Z,991.9
2023-05-20T05:40:00.267Z,992.1
2023-05-20T05:50:00.502Z,992.2
2023-05-20T06:00:00.269Z,992.3
2023-05-20T06:10:00.270Z,992.3
2023-05-20T06:20:00.254Z,992.3
2023-05-20T06:30:00.317Z,992.2
2023-05-20T06:40:00.276Z,992.2
2023-05-20T06:50:00.238Z,992.2
2023-05-20T07:00:00.268Z,992.0
2023-05-20T07:10:00.264Z,992.0
2023-05-20T07:20:00.286Z,992.0
2023-05-20T07:30:00.260Z,991.9
2023-05-20T07:40:00.296Z,992.1
2023-05-20T07:50:00.273Z,992.0
2023-05-20T08:00:00.251Z,992.0
2023-05-20T08:10:00.247Z,991.9
2023-05-20T08:20:00.261Z,991.8
2023-05-20T08:30:00.986Z,991.7
2023-05-20T08:40:00.259Z,991.6
2023-05-20T08:50:00.262Z,991.5
2023-05-20T09:00:00.274Z,991.4
2023-05-20T09:10:00.318Z,991.4
2023-05-20T09:20:00.267Z,991.3
2023-05-20T09:30:00.276Z,991.3
2023-05-20T09:40:00.286Z,991.2
2023-05-20T09:50:00.291Z,991.1
2023-05-20T10:00:00.258Z,990.9
2023-05-20T10:10:00.263Z,990.9
2023-05-20T10:20:00.292Z,990.8
2023-05-20T10:30:00.389Z,990.7
2023-05-20T10:40:00.257Z,990.5
2023-05-20T10:50:00.285Z,990.4
2023-05-20T11:00:00.264Z,990.3
2023-05-20T11:10:00.265Z,990.2
2023-05-20T11:20:00.289Z,990.2
2023-05-20T11:30:00.264Z,990.1
2023-05-20T11:40:00.257Z,989.9
2023-05-20T11:50:00.281Z,990.0
2023-05-20T12:00:00.280Z,989.9
2023-05-20T12:10:00.282Z,989.9
2023-05-20T12:20:00.280Z,989.9
2023-05-20T12:30:00.323Z,989.9
2023-05-20T12:40:00.283Z,989.7
2023-05-20T12:50:00.296Z,989.7
2023-05-20T13:00:00.260Z,989.5
2023-05-20T13:10:00.255Z,989.3
2023-05-20T13:20:00.280Z,989.3
2023-05-20T13:30:00.295Z,989.1
2023-05-20T13:40:00.311Z,989.0
2023-05-20T13:50:02.812Z,989.0
2023-05-20T14:00:00.312Z,989.0
2023-05-20T14:10:00.290Z,989.0
2023-05-20T14:20:00.300Z,988.8
2023-05-20T14:30:00.363Z,988.8
2023-05-20T14:40:00.277Z,988.8
2023-05-20T14:50:00.252Z,988.7
2023-05-20T15:00:00.296Z,988.7
2023-05-20T15:10:00.536Z,988.5
2023-05-20T15:20:00.281Z,988.5
2023-05-20T15:30:00.272Z,988.5
2023-05-20T15:40:00.275Z,988.3
2023-05-20T15:50:00.288Z,988.3
2023-05-20T16:00:00.371Z,988.3
2023-05-20T16:10:00.388Z,988.2
2023-05-20T16:20:00.486Z,988.2
2023-05-20T16:30:00.437Z,988.2
2023-05-20T16:40:00.273Z,988.2
2023-05-20T16:50:00.296Z,988.2
2023-05-20T17:00:00.268Z,988.2
2023-05-20T17:10:00.272Z,988.3
2023-05-20T17:20:00.252Z,988.4
2023-05-20T17:30:00.358Z,988.4
2023-05-20T17:40:00.261Z,988.4
2023-05-20T17:50:00.236Z,988.4
2023-05-20T18:00:00.274Z,988.4
2023-05-20T18:10:00.322Z,988.4
2023-05-20T18:20:00.283Z,988.4
2023-05-20T18:30:00.249Z,988.4
2023-05-20T18:40:00.348Z,988.5
2023-05-20T18:50:00.274Z,988.5
2023-05-20T19:00:00.268Z,988.5
2023-05-20T19:10:00.257Z,988.5
2023-05-20T19:20:00.290Z,988.5
2023-05-20T19:30:00.251Z,988.6
2023-05-20T19:40:00.271Z,988.6
2023-05-20T19:50:00.264Z,988.7
2023-05-20T20:00:00.248Z,988.5
2023-05-20T20:10:00.249Z,988.6
2023-05-20T20:20:00.243Z,988.6
2023-05-20T20:30:00.319Z,988.5
2023-05-20T20:40:00.264Z,988.4
2023-05-20T20:50:00.275Z,988.4
2023-05-20T21:00:00.321Z,988.4
2023-05-20T21:10:00.303Z,988.3
2023-05-20T21:20:00.258Z,988.3
2023-05-20T21:30:00.270Z,988.3
2023-05-20T21:40:00.261Z,988.3
2023-05-20T21:50:00.259Z,988.4
2023-05-20T22:00:00.332Z,988.3
2023-05-20T22:10:00.294Z,988.3
2023-05-20T22:20:00.262Z,988.2
2023-05-20T22:30:00.256Z,988.4
2023-05-20T22:40:00.247Z,988.4
2023-05-20T22:50:00.266Z,988.3
2023-05-20T23:00:00.338Z,988.5
2023-05-20T23:10:00.254Z,988.5
2023-05-20T23:20:00.259Z,988.4
2023-05-20T23:30:00.276Z,988.4
2023-05-20T23:40:00.249Z,988.3
2023-05-20T23:50:00.267Z,988.3
